Terminal Aerodrome Forecast
Issued by NWS

Home | Current Version | Previous Version | Text Only | Print | Product List | Glossary On
Versions: 1 2 3 4 5 6 7 8 9 10 11 12 13 14 15 16 17
028
FTPA31 PHFO 062058 AAB
TAFHJR
TAF AMD
PHJR 062058Z 0621/0718 25010KT P6SM VCSH SCT025 BKN040
     FM070600 VRB04KT P6SM VCSH SCT025 BKN035
      TEMPO 0712/0716 -SHRA=

USA.gov is the U.S. government's official web portal to all federal, state and local government web resources and services.